createdAt,value
2022-11-01T00:00:21.416Z,4.0309
2022-11-01T00:05:33.216Z,4.0309
2022-11-01T00:10:45.291Z,4.0309
2022-11-01T00:21:09.328Z,4.0309
2022-11-01T00:26:21.480Z,4.026
2022-11-01T00:31:33.288Z,4.0406
2022-11-01T00:36:45.314Z,4.026
2022-11-01T00:47:09.508Z,4.0309
2022-11-01T00:52:21.473Z,4.026
2022-11-01T00:57:33.423Z,4.0309
2022-11-01T01:02:45.283Z,4.026
2022-11-01T01:13:09.329Z,4.026
2022-11-01T01:18:21.286Z,4.026
2022-11-01T01:23:33.062Z,4.026
2022-11-01T01:28:46.395Z,4.026
2022-11-01T01:39:10.410Z,4.026
2022-11-01T01:44:22.113Z,4.0211
2022-11-01T01:49:42.704Z,4.0211
2022-11-01T02:00:04.668Z,4.0211
2022-11-01T02:05:16.546Z,4.0309
2022-11-01T02:10:28.395Z,4.0211
2022-11-01T02:15:41.196Z,4.0211
2022-11-01T02:26:04.565Z,4.0211
2022-11-01T02:31:16.399Z,4.0211
2022-11-01T02:36:28.086Z,4.0211
2022-11-01T02:41:39.802Z,4.0162
2022-11-01T02:52:03.535Z,4.0162
2022-11-01T02:57:15.301Z,4.0211
2022-11-01T03:02:27.226Z,4.026
2022-11-01T03:07:38.961Z,4.0162
2022-11-01T03:18:02.585Z,4.0211
2022-11-01T03:23:14.350Z,4.0162
2022-11-01T03:28:25.970Z,4.0162
2022-11-01T03:33:37.824Z,4.0211
2022-11-01T03:44:01.351Z,4.0162
2022-11-01T03:49:13.314Z,4.0162
2022-11-01T03:54:25.041Z,4.0114
2022-11-01T03:59:36.781Z,4.0162
2022-11-01T04:04:48.706Z,4.0162
2022-11-01T04:10:00.530Z,4.0162
2022-11-01T04:15:12.260Z,4.0114
2022-11-01T04:20:23.998Z,4.0114
2022-11-01T04:25:35.720Z,4.0162
2022-11-01T04:30:47.500Z,4.0211
2022-11-01T04:41:11.381Z,4.0114
2022-11-01T04:46:22.962Z,4.0211
2022-11-01T04:51:35.337Z,4.0114
2022-11-01T04:56:46.843Z,4.0114
2022-11-01T05:01:59.155Z,4.0114
2022-11-01T05:07:10.832Z,4.0114
2022-11-01T05:12:22.489Z,4.0114
2022-11-01T05:17:34.380Z,4.0114
2022-11-01T05:22:46.252Z,4.0114
2022-11-01T05:33:10.208Z,4.0114
2022-11-01T05:38:22.114Z,4.0114
2022-11-01T05:43:33.648Z,4.0114
2022-11-01T05:48:45.359Z,4.0162
2022-11-01T05:59:08.758Z,4.0114
2022-11-01T06:04:20.502Z,4.0114
2022-11-01T06:09:32.464Z,4.0065
2022-11-01T06:14:44.300Z,4.0114
2022-11-01T06:25:07.924Z,4.0162
2022-11-01T06:30:19.541Z,4.0065
2022-11-01T06:35:31.153Z,4.0065
2022-11-01T06:40:42.961Z,4.0065
2022-11-01T06:51:06.397Z,4.0065
2022-11-01T06:56:18.231Z,4.0065
2022-11-01T07:01:30.957Z,4.0065
2022-11-01T07:06:42.554Z,4.0065
2022-11-01T07:17:06.044Z,4.0162
2022-11-01T07:22:17.676Z,4.0065
2022-11-01T07:27:29.570Z,4.0065
2022-11-01T07:32:41.181Z,4.0065
2022-11-01T07:43:05.041Z,4.0065
2022-11-01T07:48:16.565Z,4.0065
2022-11-01T07:53:28.518Z,4.0065
2022-11-01T07:58:40.594Z,4.0065
2022-11-01T08:09:04.044Z,4.0114
2022-11-01T08:14:16.188Z,4.0065
2022-11-01T08:19:27.952Z,4.0065
2022-11-01T08:24:39.960Z,4.0065
2022-11-01T08:35:03.794Z,4.0065
2022-11-01T08:40:15.841Z,4.0114
2022-11-01T08:45:28.066Z,4.0114
2022-11-01T08:50:39.915Z,4.0114
2022-11-01T09:01:04.560Z,4.0114
2022-11-01T09:06:16.428Z,4.0114
2022-11-01T09:11:28.331Z,4.0114
2022-11-01T09:16:40.712Z,4.0162
2022-11-01T09:27:04.763Z,4.0162
2022-11-01T09:32:17.008Z,4.0211
2022-11-01T09:37:29.067Z,4.0162
2022-11-01T09:42:41.367Z,4.0162
2022-11-01T09:53:05.652Z,4.0211
2022-11-01T09:58:17.747Z,4.0162
2022-11-01T10:03:29.731Z,4.0211
2022-11-01T10:08:41.530Z,4.0211
2022-11-01T10:19:05.830Z,4.0211
2022-11-01T10:24:17.841Z,4.0211
2022-11-01T10:29:30.318Z,4.026
2022-11-01T10:34:43.310Z,4.026
2022-11-01T10:40:10.607Z,4.0309
2022-11-01T10:45:20.187Z,4.0406
2022-11-01T10:50:32.794Z,4.0406
2022-11-01T10:55:45.256Z,4.0406
2022-11-01T11:00:58.024Z,4.0406
2022-11-01T11:06:20.364Z,4.0406
2022-11-01T11:11:34.231Z,4.0309
2022-11-01T11:16:45.558Z,4.0406
2022-11-01T11:21:57.918Z,4.0406
2022-11-01T11:27:10.340Z,4.0504
2022-11-01T11:32:23.062Z,4.0699
2022-11-01T11:37:36.673Z,4.0602
2022-11-01T11:42:49.463Z,4.0455
2022-11-01T11:53:11.567Z,4.0748
2022-11-01T11:58:24.746Z,4.0699
2022-11-01T12:03:37.111Z,4.0602
2022-11-01T12:13:58.291Z,4.0553
2022-11-01T12:19:11.008Z,4.0553
2022-11-01T12:24:22.717Z,4.0553
2022-11-01T12:29:35.569Z,4.0602
2022-11-01T12:34:47.913Z,4.0602
2022-11-01T12:45:12.968Z,4.0699
2022-11-01T12:50:25.256Z,4.065
2022-11-01T12:55:37.837Z,4.0602
2022-11-01T13:00:50.676Z,4.065
2022-11-01T13:16:24.471Z,4.0602
2022-11-01T13:21:36.718Z,4.065
2022-11-01T13:26:54.056Z,4.0699
2022-11-01T13:42:31.338Z,4.0602
2022-11-01T13:52:56.034Z,4.0553
2022-11-01T14:03:20.567Z,4.0553
2022-11-01T14:08:32.767Z,4.0602
2022-11-01T14:13:45.166Z,4.0553
2022-11-01T14:18:57.540Z,4.0504
2022-11-01T14:29:21.503Z,4.0504
2022-11-01T14:34:33.672Z,4.0553
2022-11-01T14:39:45.714Z,4.0504
2022-11-01T14:44:57.890Z,4.0553
2022-11-01T14:50:14.627Z,4.0504
2022-11-01T14:55:30.165Z,4.0504
2022-11-01T15:00:42.240Z,4.0504
2022-11-01T15:11:20.434Z,4.0455
2022-11-01T15:16:32.316Z,4.0455
2022-11-01T15:21:48.603Z,4.0455
2022-11-01T15:32:12.986Z,4.0455
2022-11-01T15:37:25.079Z,4.0455
2022-11-01T15:42:37.216Z,4.0406
2022-11-01T15:47:49.017Z,4.0406
2022-11-01T15:58:18.526Z,4.0309
2022-11-01T16:03:30.576Z,4.0309
2022-11-01T16:08:42.677Z,4.0406
2022-11-01T16:13:54.870Z,4.0309
2022-11-01T16:24:18.969Z,4.0309
2022-11-01T16:29:30.964Z,4.0309
2022-11-01T16:34:42.825Z,4.0309
2022-11-01T16:39:54.728Z,4.0309
2022-11-01T16:50:18.632Z,4.026
2022-11-01T16:55:38.222Z,4.0309
2022-11-01T17:00:52.156Z,4.026
2022-11-01T17:11:16.350Z,4.026
2022-11-01T17:16:28.644Z,4.026
2022-11-01T17:21:40.790Z,4.026
2022-11-01T17:26:53.032Z,4.026
2022-11-01T17:37:17.119Z,4.026
2022-11-01T17:42:29.328Z,4.026
2022-11-01T17:47:41.869Z,4.0309
2022-11-01T17:52:53.655Z,4.0211
2022-11-01T18:03:19.194Z,4.0211
2022-11-01T18:08:31.400Z,4.0211
2022-11-01T18:13:43.829Z,4.026
2022-11-01T18:18:55.809Z,4.0211
2022-11-01T18:24:23.256Z,4.0211
2022-11-01T18:29:41.117Z,4.0211
2022-11-01T18:34:51.120Z,4.0211
2022-11-01T18:45:15.565Z,4.0211
2022-11-01T18:50:27.600Z,4.0211
2022-11-01T18:55:39.902Z,4.0211
2022-11-01T19:00:52.748Z,4.0211
2022-11-01T19:11:16.866Z,4.0162
2022-11-01T19:16:29.048Z,4.026
2022-11-01T19:21:41.191Z,4.0211
2022-11-01T19:26:53.326Z,4.0211
2022-11-01T19:37:17.561Z,4.0162
2022-11-01T19:42:32.695Z,4.0162
2022-11-01T19:47:44.246Z,4.0211
2022-11-01T19:52:56.459Z,4.0162
2022-11-01T20:03:24.296Z,4.0162
2022-11-01T20:08:38.143Z,4.0162
2022-11-01T20:13:50.811Z,4.0162
2022-11-01T20:24:15.282Z,4.0162
2022-11-01T20:29:45.113Z,4.0162
2022-11-01T20:34:55.257Z,4.0162
2022-11-01T20:45:19.308Z,4.0162
2022-11-01T20:50:31.299Z,4.0211
2022-11-01T20:55:43.181Z,4.0162
2022-11-01T21:06:08.076Z,4.0114
2022-11-01T21:11:20.918Z,4.0114
2022-11-01T21:16:32.676Z,4.0114
2022-11-01T21:21:48.376Z,4.0114
2022-11-01T21:32:16.325Z,4.0114
2022-11-01T21:37:27.896Z,4.0114
2022-11-01T21:42:39.981Z,4.0162
2022-11-01T21:47:52.193Z,4.0114
2022-11-01T21:53:06.821Z,4.0114
2022-11-01T21:58:18.292Z,4.0114
2022-11-01T22:03:30.197Z,4.0114
2022-11-01T22:08:42.317Z,4.0065
2022-11-01T22:13:54.340Z,4.0114
2022-11-01T22:19:06.256Z,4.0065
2022-11-01T22:24:18.415Z,4.0162
2022-11-01T22:29:30.444Z,4.0114
2022-11-01T22:34:42.190Z,4.0065
2022-11-01T22:39:55.121Z,4.0065
2022-11-01T22:45:06.875Z,4.0114
2022-11-01T22:50:18.761Z,4.0065
2022-11-01T22:55:30.710Z,4.0065
2022-11-01T23:00:42.705Z,4.0114
2022-11-01T23:05:54.710Z,4.0065
2022-11-01T23:11:06.671Z,4.0065
2022-11-01T23:16:18.486Z,4.0065
2022-11-01T23:21:30.560Z,4.0065
2022-11-01T23:26:42.341Z,4.0065
2022-11-01T23:31:54.264Z,4.0065
2022-11-01T23:42:18.261Z,4.0065
2022-11-01T23:47:30.255Z,4.0065
2022-11-01T23:52:42.230Z,4.0065
2022-11-01T23:57:54.341Z,4.0065
